Time;durP1;ratioP1;P1;durP2;ratioP2;P2;SDS_P1;SDS_P2;PMS_P1;PMS_P2;Temp;Humidity;BMP_temperature;BMP_pressure;BME280_temperature;BME280_humidity;BME280_pressure;Samples;Min_cycle;Max_cycle;Signal;HPM_P1;HPM_P2
2022/12/15 00:40:11;;;;;;;1.00;1.00;;;-5.10;99.90;;;;;;4947366;28;20080;-78
2022/12/15 00:42:36;;;;;;;0.98;0.98;;;-5.10;99.90;;;;;;4952962;28;20057;-78
2022/12/15 00:45:03;;;;;;;0.90;0.90;;;-5.10;99.90;;;;;;4943350;28;20540;-78
2022/12/15 00:47:32;;;;;;;1.00;1.00;;;-5.00;99.90;;;;;;4944804;28;20411;-78
2022/12/15 01:20:16;;;;;;;0.90;0.90;;;-5.20;99.90;;;;;;4935912;28;20143;-78
2022/12/15 01:22:50;;;;;;;0.90;0.90;;;-5.20;99.90;;;;;;4941453;28;20196;-77
2022/12/15 01:25:17;;;;;;;0.90;0.90;;;-5.20;99.90;;;;;;4945840;28;20221;-77
2022/12/15 01:27:44;;;;;;;0.95;0.95;;;-5.20;99.90;;;;;;4947030;28;20514;-78
2022/12/15 01:30:12;;;;;;;0.90;0.90;;;-5.20;99.90;;;;;;4950601;28;20266;-77
2022/12/15 01:32:39;;;;;;;1.00;1.00;;;-5.10;99.90;;;;;;4942024;28;20131;-77
2022/12/15 01:35:06;;;;;;;0.90;0.90;;;-5.10;99.90;;;;;;4942952;28;20057;-77
2022/12/15 01:37:33;;;;;;;0.90;0.90;;;-5.20;99.90;;;;;;4949703;28;20694;-77
2022/12/15 01:42:45;;;;;;;0.90;0.90;;;-5.20;99.90;;;;;;4945889;28;20058;-77
2022/12/15 01:45:23;;;;;;;0.90;0.90;;;-5.00;99.90;;;;;;4948334;28;20526;-77
2022/12/15 01:48:03;;;;;;;0.90;0.90;;;-5.00;99.90;;;;;;4948344;28;20061;-77
2022/12/15 01:50:31;;;;;;;0.90;0.90;;;-5.00;99.90;;;;;;4949480;28;20136;-77
2022/12/15 01:52:58;;;;;;;0.88;0.88;;;-5.00;99.90;;;;;;4946827;28;20053;-77
2022/12/15 01:55:27;;;;;;;0.90;0.90;;;-5.00;99.90;;;;;;4947456;28;20128;-77
2022/12/15 01:57:58;;;;;;;0.90;0.90;;;-5.10;99.90;;;;;;4947640;28;20045;-77
2022/12/15 02:00:23;;;;;;;0.90;0.90;;;-5.10;99.90;;;;;;4952484;28;20041;-77
2022/12/15 02:02:50;;;;;;;0.90;0.90;;;-5.10;99.90;;;;;;4944427;28;20492;-77
2022/12/15 02:05:20;;;;;;;1.00;1.00;;;-5.10;99.90;;;;;;4956594;28;20053;-77
2022/12/15 02:07:46;;;;;;;0.93;0.93;;;-5.00;99.90;;;;;;4945857;28;20115;-77
2022/12/15 02:10:12;;;;;;;0.90;0.90;;;-5.00;99.90;;;;;;4956494;28;20044;-77
2022/12/15 02:12:41;;;;;;;0.90;0.90;;;-5.00;99.90;;;;;;4941844;28;20411;-77
2022/12/15 02:15:32;;;;;;;0.90;0.90;;;-5.00;99.90;;;;;;4949602;28;20053;-78
2022/12/15 02:18:20;;;;;;;0.90;0.90;;;-5.00;99.90;;;;;;4949954;28;20549;-77
2022/12/15 02:20:56;;;;;;;0.90;0.90;;;-4.90;99.90;;;;;;4948868;28;20072;-78
2022/12/15 02:23:44;;;;;;;0.90;0.90;;;-4.90;99.90;;;;;;4942363;28;20426;-78
2022/12/15 02:26:56;;;;;;;0.90;0.90;;;-5.00;99.90;;;;;;4946623;28;20063;-77
2022/12/15 02:29:32;;;;;;;0.90;0.90;;;-4.90;99.90;;;;;;4945647;28;20795;-77
2022/12/15 02:32:13;;;;;;;0.90;0.90;;;-4.90;99.90;;;;;;4948835;28;20042;-77
2022/12/15 02:34:45;;;;;;;1.00;1.00;;;-4.90;99.90;;;;;;4948996;28;20612;-77
2022/12/15 02:37:23;;;;;;;0.90;0.90;;;-4.80;99.90;;;;;;4948362;28;20056;-78
2022/12/15 02:39:49;;;;;;;0.90;0.90;;;-4.80;99.90;;;;;;4943383;28;20602;-77
2022/12/15 02:42:15;;;;;;;0.90;0.90;;;-4.80;99.90;;;;;;4957766;28;20972;-77
2022/12/15 02:44:55;;;;;;;0.90;0.90;;;-4.80;99.90;;;;;;4955141;28;20804;-77
2022/12/15 02:47:47;;;;;;;0.90;0.90;;;-4.90;99.90;;;;;;4938579;28;20462;-77
2022/12/15 02:50:45;;;;;;;0.90;0.90;;;-4.90;99.90;;;;;;4950078;28;20095;-78
2022/12/15 02:53:55;;;;;;;1.00;1.00;;;-4.90;99.90;;;;;;4939259;28;20651;-77
2022/12/15 02:56:41;;;;;;;0.90;0.90;;;-4.90;99.90;;;;;;4949724;28;20068;-77
2022/12/15 02:59:14;;;;;;;0.90;0.90;;;-5.10;99.90;;;;;;4942380;28;20122;-78
2022/12/15 03:02:01;;;;;;;1.35;1.35;;;-5.10;99.90;;;;;;4924936;28;20556;-77
2022/12/15 03:04:27;;;;;;;0.90;0.90;;;-5.10;99.90;;;;;;4953435;28;20041;-77
2022/12/15 03:06:59;;;;;;;0.90;0.90;;;-5.10;99.90;;;;;;4934178;28;20052;-77
2022/12/15 03:09:24;;;;;;;0.90;0.90;;;-5.10;99.90;;;;;;4938832;28;20725;-77
2022/12/15 03:11:50;;;;;;;1.00;1.00;;;-5.10;99.90;;;;;;4941633;28;20122;-77
2022/12/15 03:14:16;;;;;;;0.90;0.90;;;-5.10;99.90;;;;;;4943452;28;20179;-77
2022/12/15 03:16:42;;;;;;;0.90;0.90;;;-5.10;99.90;;;;;;4947920;28;20644;-77
2022/12/15 03:19:08;;;;;;;0.93;0.93;;;-5.10;99.90;;;;;;4937214;28;20054;-77
2022/12/15 03:21:34;;;;;;;0.88;0.88;;;-5.10;99.90;;;;;;4940460;28;20569;-77
2022/12/15 03:24:00;;;;;;;0.90;0.90;;;-5.00;99.90;;;;;;4944938;28;20124;-77
2022/12/15 03:26:26;;;;;;;0.90;0.90;;;-5.00;99.90;;;;;;4945206;28;20695;-77
2022/12/15 03:28:52;;;;;;;0.90;0.90;;;-5.00;99.90;;;;;;4942570;28;20041;-77
2022/12/15 03:31:18;;;;;;;0.90;0.90;;;-4.90;99.90;;;;;;4923995;28;20384;-77
2022/12/15 03:33:44;;;;;;;0.85;0.85;;;-4.90;99.90;;;;;;4946279;28;20156;-77
2022/12/15 03:36:10;;;;;;;0.95;0.95;;;-4.90;99.90;;;;;;4939465;28;20788;-78
2022/12/15 03:38:36;;;;;;;0.90;0.90;;;-4.80;99.90;;;;;;4956258;28;20052;-77
2022/12/15 03:41:02;;;;;;;0.90;0.90;;;-4.80;99.90;;;;;;4940038;28;20041;-77
2022/12/15 03:43:28;;;;;;;0.90;0.90;;;-4.70;99.90;;;;;;4943029;28;20060;-77
2022/12/15 03:45:54;;;;;;;0.90;0.90;;;-4.70;99.90;;;;;;4943397;28;20467;-77
2022/12/15 03:48:20;;;;;;;0.90;0.90;;;-4.70;99.90;;;;;;4937458;28;20049;-77
2022/12/15 03:50:48;;;;;;;1.00;1.00;;;-4.80;99.90;;;;;;4944317;28;20053;-77
2022/12/15 03:53:15;;;;;;;0.90;0.90;;;-4.80;99.90;;;;;;4949669;28;20530;-78
2022/12/15 03:55:40;;;;;;;0.90;0.90;;;-4.80;99.90;;;;;;4945361;28;20471;-77
2022/12/15 03:58:06;;;;;;;0.90;0.90;;;-4.80;99.90;;;;;;4951019;28;20049;-77
2022/12/15 04:00:33;;;;;;;0.90;0.90;;;-4.80;99.90;;;;;;4958428;28;20049;-77
2022/12/15 04:02:59;;;;;;;1.00;1.00;;;-4.70;99.90;;;;;;4940670;28;20269;-77
2022/12/15 04:05:30;;;;;;;0.90;0.90;;;-4.70;99.90;;;;;;4921743;28;20060;-77
2022/12/15 04:07:58;;;;;;;0.90;0.90;;;-4.70;99.90;;;;;;4925506;28;20232;-77
2022/12/15 04:10:27;;;;;;;0.90;0.90;;;-4.60;99.90;;;;;;4948411;28;20087;-77
2022/12/15 04:13:06;;;;;;;0.90;0.90;;;-4.60;99.90;;;;;;4943658;28;20621;-78
2022/12/15 04:15:33;;;;;;;0.90;0.90;;;-4.50;99.90;;;;;;4937168;28;20463;-77
2022/12/15 04:18:01;;;;;;;0.90;0.90;;;-4.60;99.90;;;;;;4951763;28;20514;-77
2022/12/15 04:20:28;;;;;;;0.90;0.90;;;-4.60;99.90;;;;;;4939525;28;20056;-77
2022/12/15 04:22:55;;;;;;;0.90;0.90;;;-4.50;99.90;;;;;;4941352;28;20151;-78
2022/12/15 05:31:57;;;;;;;0.90;0.90;;;-4.50;99.90;;;;;;4948431;28;20063;-77
2022/12/15 05:34:28;;;;;;;0.90;0.90;;;-4.40;99.90;;;;;;4928967;28;20893;-78
2022/12/15 05:36:55;;;;;;;1.20;1.20;;;-4.40;99.90;;;;;;4943202;28;20049;-78
2022/12/15 05:39:21;;;;;;;0.90;0.90;;;-4.30;99.90;;;;;;4942754;28;20907;-78
2022/12/15 05:41:49;;;;;;;0.90;0.90;;;-4.40;99.90;;;;;;4940547;28;20041;-77
2022/12/15 05:44:16;;;;;;;0.90;0.90;;;-4.30;99.90;;;;;;4942980;28;20473;-77
2022/12/15 05:46:42;;;;;;;0.90;0.90;;;-4.40;99.90;;;;;;4938345;28;20045;-78
2022/12/15 05:49:12;;;;;;;0.90;0.90;;;-4.30;99.90;;;;;;4941122;28;20631;-77
2022/12/15 05:51:39;;;;;;;0.90;0.90;;;-4.30;99.90;;;;;;4948367;28;20087;-77
2022/12/15 05:54:09;;;;;;;0.90;0.90;;;-4.20;99.90;;;;;;4932388;28;20358;-77
2022/12/15 05:56:35;;;;;;;0.90;0.90;;;-4.20;99.90;;;;;;4945190;28;20053;-77
2022/12/15 05:59:02;;;;;;;0.90;0.90;;;-4.10;99.90;;;;;;4939670;28;20069;-77
2022/12/15 06:01:34;;;;;;;1.00;1.00;;;-4.20;99.90;;;;;;4942007;28;20068;-77
2022/12/15 06:04:00;;;;;;;1.00;1.00;;;-4.10;99.90;;;;;;4947435;28;20122;-77
2022/12/15 06:06:27;;;;;;;0.90;0.90;;;-4.20;99.90;;;;;;4941359;28;20529;-78
2022/12/15 06:08:53;;;;;;;0.98;0.98;;;-4.30;99.90;;;;;;4946471;28;20041;-77
2022/12/15 06:11:21;;;;;;;0.90;0.90;;;-4.20;99.90;;;;;;4943102;28;20589;-77
2022/12/15 06:13:47;;;;;;;0.90;0.90;;;-4.30;99.90;;;;;;4948189;28;20041;-77
2022/12/15 06:16:15;;;;;;;0.90;0.90;;;-4.30;99.90;;;;;;4945281;28;20546;-77
2022/12/15 06:18:45;;;;;;;1.00;1.00;;;-4.50;99.90;;;;;;4943678;28;20046;-77
2022/12/15 06:21:14;;;;;;;1.00;1.00;;;-4.50;99.90;;;;;;4950068;28;20805;-77
2022/12/15 06:23:41;;;;;;;0.90;0.90;;;-4.60;99.90;;;;;;4944439;28;20053;-77
2022/12/15 06:26:19;;;;;;;1.00;1.00;;;-4.60;99.90;;;;;;4943552;28;20049;-77
2022/12/15 06:28:46;;;;;;;0.90;0.90;;;-4.60;99.90;;;;;;4944863;28;20057;-77
2022/12/15 06:31:12;;;;;;;0.90;0.90;;;-4.70;99.90;;;;;;4941574;28;20052;-78
2022/12/15 06:33:38;;;;;;;0.90;0.90;;;-4.80;99.90;;;;;;4942923;28;20518;-77
2022/12/15 06:36:09;;;;;;;1.00;1.00;;;-4.70;99.90;;;;;;4942598;28;20056;-77
2022/12/15 06:38:36;;;;;;;0.90;0.90;;;-4.80;99.90;;;;;;4942807;28;20411;-77
2022/12/15 06:41:04;;;;;;;0.95;0.95;;;-4.80;99.90;;;;;;4933811;28;20087;-78
2022/12/15 06:43:32;;;;;;;1.00;1.00;;;-4.80;99.90;;;;;;4976936;28;20528;-78
2022/12/15 06:45:59;;;;;;;1.00;1.00;;;-4.80;99.90;;;;;;4960177;28;20045;-77
2022/12/15 06:48:25;;;;;;;1.00;1.00;;;-4.70;99.90;;;;;;4943093;28;20630;-77
2022/12/15 06:50:51;;;;;;;0.90;0.90;;;-4.80;99.90;;;;;;4940138;28;20412;-77
2022/12/15 06:53:20;;;;;;;1.00;1.00;;;-4.70;99.90;;;;;;4930066;28;20048;-77
2022/12/15 06:55:47;;;;;;;0.90;0.90;;;-4.70;99.90;;;;;;4938913;28;20263;-77
2022/12/15 06:58:14;;;;;;;1.00;1.00;;;-4.70;99.90;;;;;;4940952;28;20050;-77
2022/12/15 07:00:45;;;;;;;0.90;0.90;;;-4.80;99.90;;;;;;4958782;28;20045;-77
2022/12/15 07:03:17;;;;;;;0.90;0.90;;;-4.70;99.90;;;;;;4937828;28;20486;-77
2022/12/15 07:05:44;;;;;;;0.90;0.90;;;-4.60;99.90;;;;;;4946557;28;20164;-77
2022/12/15 07:08:12;;;;;;;0.90;0.90;;;-4.70;99.90;;;;;;4944239;28;20295;-77
2022/12/15 07:10:40;;;;;;;0.90;0.90;;;-4.60;99.90;;;;;;4947839;28;20584;-77
2022/12/15 07:13:09;;;;;;;1.10;1.10;;;-4.70;99.90;;;;;;4937101;28;20556;-78
2022/12/15 07:15:35;;;;;;;0.90;0.90;;;-4.90;99.90;;;;;;4940997;28;20515;-78
2022/12/15 07:18:01;;;;;;;0.90;0.90;;;-4.90;99.90;;;;;;4944034;28;20458;-78
2022/12/15 07:20:28;;;;;;;0.90;0.90;;;-4.80;99.90;;;;;;4940107;28;20483;-77
2022/12/15 07:22:54;;;;;;;1.00;1.00;;;-4.80;99.90;;;;;;4944804;28;20442;-78
2022/12/15 07:25:20;;;;;;;0.90;0.90;;;-4.80;99.90;;;;;;4940507;28;20060;-80
2022/12/15 07:27:46;;;;;;;0.90;0.90;;;-4.90;99.90;;;;;;4946099;28;20049;-76
2022/12/15 07:30:14;;;;;;;0.90;0.90;;;-4.80;99.90;;;;;;4942511;28;20103;-76
2022/12/15 07:32:40;;;;;;;0.90;0.90;;;-4.80;99.90;;;;;;4959932;28;20865;-78
2022/12/15 07:35:07;;;;;;;0.90;0.90;;;-4.80;99.90;;;;;;4955824;28;20487;-77
2022/12/15 07:37:33;;;;;;;0.90;0.90;;;-4.70;99.90;;;;;;4951009;28;20058;-76
2022/12/15 07:39:59;;;;;;;0.90;0.90;;;-4.70;99.90;;;;;;4957081;28;20049;-75
2022/12/15 07:42:28;;;;;;;0.90;0.90;;;-4.60;99.90;;;;;;4928879;28;20809;-78
2022/12/15 07:44:55;;;;;;;0.90;0.90;;;-4.50;99.90;;;;;;4950109;28;20484;-78
2022/12/15 07:47:21;;;;;;;0.90;0.90;;;-4.50;99.90;;;;;;4954565;28;20056;-76
2022/12/15 07:49:47;;;;;;;0.90;0.90;;;-4.50;99.90;;;;;;4937540;28;20049;-78
2022/12/15 07:52:13;;;;;;;0.90;0.90;;;-4.40;99.90;;;;;;4947429;28;20045;-76
2022/12/15 07:54:40;;;;;;;3.78;3.50;;;-4.30;99.90;;;;;;4940417;28;20437;-77
2022/12/15 07:57:06;;;;;;;0.90;0.90;;;-4.30;99.90;;;;;;4940488;28;20045;-78
2022/12/15 07:59:35;;;;;;;0.90;0.90;;;-4.30;99.90;;;;;;4940856;28;20052;-77
2022/12/15 08:02:03;;;;;;;0.90;0.90;;;-4.20;99.90;;;;;;4941636;28;21114;-78
2022/12/15 08:04:32;;;;;;;0.90;0.90;;;-4.10;99.90;;;;;;4938729;28;20048;-77
2022/12/15 08:06:59;;;;;;;0.90;0.90;;;-4.10;99.90;;;;;;4937950;28;20110;-78
2022/12/15 08:09:25;;;;;;;0.90;0.90;;;-4.00;99.90;;;;;;4939376;28;20052;-77
2022/12/15 08:11:51;;;;;;;0.90;0.90;;;-3.80;99.90;;;;;;4940548;28;20288;-76
2022/12/15 08:14:17;;;;;;;0.90;0.90;;;-3.70;99.90;;;;;;4939281;28;20045;-76
2022/12/15 08:16:44;;;;;;;0.90;0.90;;;-3.60;99.90;;;;;;4946615;28;20907;-77
2022/12/15 08:19:14;;;;;;;0.90;0.90;;;-3.50;99.90;;;;;;4942718;28;20045;-77
2022/12/15 08:21:44;;;;;;;0.90;0.90;;;-3.30;99.90;;;;;;4940759;28;20114;-78
2022/12/15 08:24:12;;;;;;;0.90;0.90;;;-3.20;99.90;;;;;;4945732;28;20049;-77
2022/12/15 08:26:38;;;;;;;0.90;0.90;;;-3.00;99.90;;;;;;4946684;28;20102;-77
2022/12/15 08:29:06;;;;;;;0.90;0.90;;;-2.70;99.90;;;;;;4948470;28;20091;-78
2022/12/15 08:31:32;;;;;;;0.80;0.80;;;-2.40;99.90;;;;;;4941878;28;20805;-78
2022/12/15 08:34:00;;;;;;;0.80;0.80;;;-2.10;99.90;;;;;;4940657;28;21492;-78
2022/12/15 08:36:27;;;;;;;0.85;0.85;;;-2.00;99.90;;;;;;4947277;28;20552;-77
2022/12/15 08:38:56;;;;;;;0.80;0.80;;;-1.90;99.90;;;;;;4951268;28;20049;-77
2022/12/15 08:41:25;;;;;;;0.90;0.90;;;-1.80;99.90;;;;;;4944475;28;20766;-77
2022/12/15 08:43:55;;;;;;;0.80;0.80;;;-1.80;99.90;;;;;;4947656;28;20052;-77
2022/12/15 08:46:24;;;;;;;0.90;0.90;;;-1.80;99.90;;;;;;4952876;28;21459;-78
2022/12/15 08:48:51;;;;;;;0.80;0.80;;;-1.60;99.90;;;;;;4934549;28;20072;-78
2022/12/15 08:51:18;;;;;;;0.80;0.80;;;-1.70;99.90;;;;;;4939838;28;20939;-78
2022/12/15 08:53:44;;;;;;;0.80;0.80;;;-1.90;99.90;;;;;;4950788;28;20928;-78
2022/12/15 08:56:14;;;;;;;0.80;0.80;;;-2.00;99.90;;;;;;4949737;28;20726;-78
2022/12/15 08:58:41;;;;;;;0.80;0.80;;;-2.20;99.90;;;;;;4945583;28;20048;-79
2022/12/15 09:01:13;;;;;;;0.80;0.80;;;-2.10;99.90;;;;;;4944058;28;20579;-78
2022/12/15 09:03:39;;;;;;;0.80;0.80;;;-2.00;99.90;;;;;;4946084;28;20591;-77
2022/12/15 09:06:10;;;;;;;0.80;0.80;;;-2.00;99.90;;;;;;4944016;28;20045;-78
2022/12/15 09:08:36;;;;;;;0.80;0.80;;;-1.80;99.90;;;;;;4944444;28;21061;-78
2022/12/15 09:11:04;;;;;;;0.90;0.90;;;-1.80;99.90;;;;;;4948800;28;20046;-79
2022/12/15 09:13:31;;;;;;;0.82;0.82;;;-1.80;99.90;;;;;;4953156;28;20045;-78
2022/12/15 09:16:02;;;;;;;0.80;0.80;;;-1.70;99.90;;;;;;4946392;28;20407;-77
2022/12/15 09:18:28;;;;;;;0.90;0.90;;;-1.60;99.90;;;;;;4943150;28;20041;-78
2022/12/15 09:20:54;;;;;;;0.80;0.80;;;-1.50;99.90;;;;;;4948473;28;20535;-78
2022/12/15 09:23:21;;;;;;;0.90;0.90;;;-1.50;99.90;;;;;;4947428;28;20067;-78
2022/12/15 09:25:47;;;;;;;0.90;0.90;;;-1.40;99.90;;;;;;4951430;28;20057;-77
2022/12/15 09:28:13;;;;;;;0.80;0.80;;;-1.30;99.90;;;;;;4957958;28;20053;-80
2022/12/15 09:30:39;;;;;;;0.90;0.90;;;-1.30;99.90;;;;;;4926048;28;20045;-78
2022/12/15 09:33:05;;;;;;;0.90;0.90;;;-1.30;99.90;;;;;;4944463;28;20100;-78
2022/12/15 09:35:31;;;;;;;0.80;0.80;;;-1.10;99.90;;;;;;4947803;28;20048;-79
2022/12/15 09:37:57;;;;;;;0.80;0.80;;;-0.90;99.90;;;;;;4946695;28;20040;-79
2022/12/15 09:40:24;;;;;;;0.82;0.82;;;-0.90;99.90;;;;;;4954241;28;20156;-79
2022/12/15 09:42:55;;;;;;;0.80;0.80;;;-0.70;99.90;;;;;;4949811;28;20435;-78
2022/12/15 09:45:25;;;;;;;0.80;0.80;;;-0.70;99.90;;;;;;4950455;28;20132;-78
2022/12/15 09:48:03;;;;;;;0.70;0.70;;;-0.70;99.90;;;;;;4941039;28;20061;-79
2022/12/15 09:50:38;;;;;;;0.80;0.80;;;-0.70;99.90;;;;;;4945022;28;20553;-79
2022/12/15 09:53:15;;;;;;;0.80;0.80;;;-0.60;99.90;;;;;;4939868;28;20496;-80
2022/12/15 09:55:44;;;;;;;0.80;0.80;;;-0.70;99.90;;;;;;4950242;28;20208;-80
2022/12/15 09:58:42;;;;;;;0.70;0.70;;;-0.50;99.90;;;;;;4949699;28;20053;-77
2022/12/15 10:01:28;;;;;;;0.70;0.70;;;-0.50;99.90;;;;;;4927609;28;20115;-78
2022/12/15 10:03:58;;;;;;;0.70;0.70;;;-0.40;99.90;;;;;;4950170;28;20054;-81
2022/12/15 10:06:46;;;;;;;0.80;0.80;;;-0.60;99.90;;;;;;4954754;28;20057;-80
2022/12/15 10:09:21;;;;;;;0.80;0.80;;;-0.70;99.90;;;;;;4953481;28;20125;-79
2022/12/15 10:12:04;;;;;;;0.80;0.80;;;-0.60;99.90;;;;;;4950955;28;20091;-80
2022/12/15 10:14:43;;;;;;;0.70;0.70;;;-0.70;99.90;;;;;;4943227;28;20135;-78
2022/12/15 10:17:13;;;;;;;0.80;0.80;;;-0.60;99.90;;;;;;4949750;28;20045;-78
2022/12/15 10:19:55;;;;;;;0.70;0.70;;;-0.40;99.90;;;;;;4960887;28;20051;-77
2022/12/15 10:22:25;;;;;;;0.80;0.80;;;-0.20;99.90;;;;;;4947496;28;20061;-75
2022/12/15 10:24:51;;;;;;;0.80;0.80;;;-0.20;99.90;;;;;;4949810;28;20041;-80
2022/12/15 10:27:55;;;;;;;0.80;0.80;;;0.00;99.90;;;;;;4948984;28;20060;-78
2022/12/15 10:30:21;;;;;;;0.90;0.90;;;0.10;99.90;;;;;;4957670;28;20904;-78
2022/12/15 10:33:12;;;;;;;0.80;0.80;;;0.10;99.90;;;;;;4956080;28;20049;-78
2022/12/15 10:35:40;;;;;;;0.80;0.80;;;0.30;99.90;;;;;;4951096;28;20892;-78
2022/12/15 10:38:22;;;;;;;0.80;0.80;;;0.30;99.90;;;;;;4957103;28;20502;-78
2022/12/15 10:40:50;;;;;;;0.80;0.80;;;0.40;99.90;;;;;;4955465;28;20565;-79
2022/12/15 10:43:26;;;;;;;0.80;0.80;;;0.50;99.90;;;;;;4962121;28;20049;-78
2022/12/15 10:46:07;;;;;;;0.80;0.80;;;0.50;99.90;;;;;;4948830;28;20045;-78
2022/12/15 10:48:34;;;;;;;0.70;0.70;;;0.60;99.90;;;;;;4959564;28;20257;-79
2022/12/15 10:51:13;;;;;;;0.80;0.80;;;0.70;99.90;;;;;;4957667;28;20771;-79
2022/12/15 10:53:43;;;;;;;0.80;0.80;;;0.90;99.90;;;;;;4957706;28;20053;-78
2022/12/15 10:56:19;;;;;;;0.80;0.80;;;0.80;99.90;;;;;;4944035;28;20046;-81
2022/12/15 10:58:54;;;;;;;0.80;0.80;;;0.90;99.90;;;;;;4944447;28;20424;-80
2022/12/15 11:01:24;;;;;;;0.80;0.80;;;0.90;99.90;;;;;;4948848;28;20457;-79
2022/12/15 11:03:52;;;;;;;0.80;0.80;;;1.00;99.90;;;;;;4941929;28;20156;-80
2022/12/15 11:06:21;;;;;;;0.80;0.80;;;1.00;99.90;;;;;;4944613;28;20391;-79
2022/12/15 11:08:49;;;;;;;0.80;0.80;;;1.00;99.90;;;;;;4954179;28;20061;-80
2022/12/15 11:14:22;;;;;;;0.77;0.77;;;1.10;99.90;;;;;;4943024;28;20061;-80
2022/12/15 11:16:57;;;;;;;0.80;0.80;;;1.40;99.90;;;;;;4943119;28;20131;-79
2022/12/15 11:19:39;;;;;;;0.70;0.70;;;1.70;99.90;;;;;;4947370;28;20049;-80
2022/12/15 11:22:46;;;;;;;0.80;0.80;;;1.80;99.90;;;;;;4952169;28;20266;-80
2022/12/15 11:25:36;;;;;;;0.70;0.70;;;2.00;99.90;;;;;;4967788;28;20488;-80
2022/12/15 11:28:10;;;;;;;0.80;0.80;;;1.90;99.90;;;;;;4949492;28;20623;-81
2022/12/15 11:30:49;;;;;;;0.70;0.70;;;2.10;99.90;;;;;;4950642;28;20080;-82
2022/12/15 11:33:15;;;;;;;0.70;0.70;;;2.30;99.90;;;;;;4955424;28;20053;-81
2022/12/15 11:36:08;;;;;;;0.77;0.77;;;2.40;99.90;;;;;;4941019;28;20158;-80
2022/12/15 11:38:37;;;;;;;0.70;0.70;;;2.10;99.90;;;;;;4944976;28;20059;-80
2022/12/15 11:41:30;;;;;;;0.70;0.70;;;2.10;99.90;;;;;;4946652;28;20072;-80
2022/12/15 11:44:23;;;;;;;0.80;0.80;;;2.20;99.90;;;;;;4946006;28;20458;-81
2022/12/15 11:46:57;;;;;;;0.70;0.70;;;2.30;99.90;;;;;;4950741;28;20053;-82
2022/12/15 11:49:29;;;;;;;;;;;2.30;99.90;;;;;;4952922;28;20411;-80
2022/12/15 11:52:05;;;;;;;0.75;0.75;;;2.10;99.90;;;;;;4932299;28;21387;-81
2022/12/15 11:54:42;;;;;;;0.80;0.80;;;2.00;99.90;;;;;;4943205;28;20051;-80
2022/12/15 11:57:15;;;;;;;0.80;0.80;;;1.70;99.90;;;;;;4946875;28;20088;-82
2022/12/15 11:59:58;;;;;;;0.80;0.80;;;1.70;99.90;;;;;;4950712;28;20852;-81
2022/12/15 12:02:51;;;;;;;0.80;0.80;;;1.80;99.90;;;;;;4946189;28;20041;-82
2022/12/15 12:06:00;;;;;;;0.90;0.90;;;1.70;99.90;;;;;;4943529;28;21094;-82
2022/12/15 12:08:53;;;;;;;0.80;0.80;;;1.70;99.90;;;;;;4948114;28;20356;-82
2022/12/15 12:11:41;;;;;;;0.80;0.80;;;1.70;99.90;;;;;;4950968;28;20053;-78
2022/12/15 12:14:16;;;;;;;0.80;0.80;;;2.00;99.90;;;;;;4946983;28;20911;-81
2022/12/15 12:16:54;;;;;;;0.80;0.80;;;2.20;99.90;;;;;;4955710;28;20081;-80
2022/12/15 12:19:43;;;;;;;0.80;0.80;;;2.20;99.90;;;;;;4956142;28;20056;-81
2022/12/15 12:22:22;;;;;;;0.70;0.70;;;2.20;99.90;;;;;;4946501;28;20677;-80
2022/12/15 12:24:56;;;;;;;0.70;0.70;;;2.20;99.90;;;;;;4948529;28;20053;-81
2022/12/15 12:27:27;;;;;;;0.80;0.80;;;2.20;99.90;;;;;;4959002;28;20056;-81
2022/12/15 12:30:05;;;;;;;0.80;0.80;;;2.30;99.90;;;;;;4956922;28;20402;-81
2022/12/15 12:32:39;;;;;;;0.70;0.70;;;2.50;99.90;;;;;;4952531;28;20042;-80
2022/12/15 12:35:18;;;;;;;0.80;0.80;;;2.70;99.90;;;;;;4948144;28;20731;-81
2022/12/15 12:38:00;;;;;;;0.73;0.73;;;2.90;99.90;;;;;;4944994;28;20065;-80
2022/12/15 12:40:41;;;;;;;0.80;0.80;;;3.00;99.90;;;;;;4943368;28;20111;-81
2022/12/15 12:43:09;;;;;;;0.70;0.70;;;3.00;99.90;;;;;;4953883;28;20136;-80
2022/12/15 12:45:50;;;;;;;0.80;0.80;;;3.00;99.90;;;;;;4953110;28;20123;-80
2022/12/15 12:48:38;;;;;;;0.70;0.70;;;3.10;99.90;;;;;;4950707;28;20212;-80
2022/12/15 12:51:31;;;;;;;0.70;0.70;;;3.00;99.90;;;;;;4952114;28;20998;-82
2022/12/15 12:53:59;;;;;;;0.70;0.70;;;3.00;99.90;;;;;;4952983;28;20062;-81
2022/12/15 12:56:33;;;;;;;0.70;0.70;;;3.00;99.90;;;;;;4953775;28;20129;-80
2022/12/15 12:58:59;;;;;;;0.70;0.70;;;2.50;99.90;;;;;;4953128;28;20045;-82
2022/12/15 13:01:34;;;;;;;0.70;0.70;;;2.20;99.90;;;;;;4938906;28;20077;-81
2022/12/15 13:04:12;;;;;;;0.70;0.70;;;2.40;99.90;;;;;;4952269;28;20567;-81
2022/12/15 13:06:38;;;;;;;0.70;0.70;;;2.60;99.90;;;;;;4951877;28;20136;-81
2022/12/15 13:09:16;;;;;;;0.70;0.70;;;2.40;99.90;;;;;;4951251;28;20045;-81
2022/12/15 13:11:49;;;;;;;0.70;0.70;;;2.20;99.90;;;;;;4951232;28;20852;-80
2022/12/15 13:14:40;;;;;;;0.70;0.70;;;2.10;99.90;;;;;;4949277;28;20057;-81
2022/12/15 13:17:24;;;;;;;0.70;0.70;;;2.00;99.90;;;;;;4946137;28;20064;-80
2022/12/15 13:20:00;;;;;;;0.95;0.95;;;1.90;99.90;;;;;;4944630;28;20438;-81
2022/12/15 13:22:34;;;;;;;0.70;0.70;;;1.90;99.90;;;;;;4943205;28;20057;-80
2022/12/15 13:25:01;;;;;;;0.70;0.70;;;2.00;99.90;;;;;;4950107;28;20053;-81
2022/12/15 13:27:39;;;;;;;0.70;0.70;;;2.10;99.90;;;;;;4951081;28;20041;-82
2022/12/15 13:30:08;;;;;;;0.70;0.70;;;2.10;99.90;;;;;;4947424;28;20052;-83
2022/12/15 13:32:46;;;;;;;0.80;0.80;;;2.20;99.90;;;;;;4941083;28;20088;-83
2022/12/15 13:35:12;;;;;;;0.70;0.70;;;2.20;99.90;;;;;;4945874;28;20160;-82
2022/12/15 13:37:52;;;;;;;0.70;0.70;;;2.30;99.90;;;;;;4947846;28;20048;-82
2022/12/15 13:40:33;;;;;;;0.70;0.70;;;2.20;99.90;;;;;;4953461;28;20271;-80
2022/12/15 13:43:02;;;;;;;0.80;0.80;;;2.10;99.90;;;;;;4964232;28;20879;-81
2022/12/15 13:45:52;;;;;;;0.80;0.80;;;1.90;99.90;;;;;;4943506;28;20862;-82
2022/12/15 13:48:35;;;;;;;0.70;0.70;;;1.80;99.90;;;;;;4935044;28;20063;-83
2022/12/15 13:51:26;;;;;;;0.80;0.80;;;1.80;99.90;;;;;;4943164;28;20283;-81
2022/12/15 13:54:08;;;;;;;0.70;0.70;;;1.60;99.90;;;;;;4926099;28;20091;-82
2022/12/15 13:56:50;;;;;;;0.70;0.70;;;1.60;99.90;;;;;;4948924;28;20100;-81
2022/12/15 13:59:28;;;;;;;0.77;0.77;;;1.60;99.90;;;;;;4949693;28;20083;-83
2022/12/15 14:01:54;;;;;;;0.73;0.73;;;1.60;99.90;;;;;;4949275;28;20068;-82
2022/12/15 14:04:21;;;;;;;0.80;0.80;;;1.60;99.90;;;;;;4933765;28;20558;-81
2022/12/15 14:06:56;;;;;;;0.70;0.70;;;1.60;99.90;;;;;;4955283;28;20056;-81
2022/12/15 14:09:27;;;;;;;0.70;0.70;;;1.50;99.90;;;;;;4959653;28;20053;-83
2022/12/15 14:11:53;;;;;;;0.70;0.70;;;1.50;99.90;;;;;;4946515;28;20582;-82
2022/12/15 14:14:28;;;;;;;0.70;0.70;;;1.60;99.90;;;;;;4947584;28;20049;-84
2022/12/15 14:16:58;;;;;;;0.80;0.80;;;1.70;99.90;;;;;;4955718;28;20933;-85
2022/12/15 14:19:24;;;;;;;0.75;0.75;;;1.70;99.90;;;;;;4950104;28;20126;-82
2022/12/15 14:21:56;;;;;;;0.77;0.77;;;1.60;99.90;;;;;;4949504;28;20113;-82
2022/12/15 14:24:42;;;;;;;0.80;0.80;;;1.50;99.90;;;;;;4941215;28;20057;-82
2022/12/15 14:27:08;;;;;;;0.70;0.70;;;1.40;99.90;;;;;;4948451;28;20504;-81
2022/12/15 14:29:34;;;;;;;0.80;0.80;;;1.50;99.90;;;;;;4944352;28;20970;-82
2022/12/15 14:32:00;;;;;;;0.77;0.77;;;1.50;99.90;;;;;;4931827;28;20145;-81
2022/12/15 14:34:34;;;;;;;0.70;0.70;;;1.40;99.90;;;;;;4946611;28;20053;-84
2022/12/15 14:37:06;;;;;;;0.80;0.80;;;1.50;99.90;;;;;;4942976;28;20080;-80
2022/12/15 14:39:38;;;;;;;0.70;0.70;;;1.40;99.90;;;;;;4954270;28;20044;-81
2022/12/15 14:42:06;;;;;;;0.70;0.70;;;1.40;99.90;;;;;;4957400;28;20158;-82
2022/12/15 14:44:38;;;;;;;0.70;0.70;;;1.40;99.90;;;;;;4964291;28;20677;-82
2022/12/15 14:47:31;;;;;;;0.80;0.80;;;1.30;99.90;;;;;;4927268;28;20100;-84
2022/12/15 14:50:00;;;;;;;0.80;0.80;;;1.30;99.90;;;;;;4954032;28;20104;-83
2022/12/15 14:52:31;;;;;;;0.80;0.80;;;1.20;99.90;;;;;;4946783;28;20053;-81
2022/12/15 14:55:00;;;;;;;1.00;1.00;;;1.10;99.90;;;;;;4941415;28;20073;-82
2022/12/15 14:57:28;;;;;;;0.80;0.80;;;1.10;99.90;;;;;;4944071;28;20895;-82
2022/12/15 14:59:54;;;;;;;0.80;0.80;;;1.00;99.90;;;;;;4950518;28;20164;-82
2022/12/15 15:02:27;;;;;;;0.80;0.80;;;1.00;99.90;;;;;;4948944;28;20457;-82
2022/12/15 15:05:40;;;;;;;0.70;0.70;;;0.80;99.90;;;;;;4952521;28;20417;-81
2022/12/15 15:08:13;;;;;;;0.75;0.75;;;0.80;99.90;;;;;;4949534;28;20196;-82
2022/12/15 15:10:40;;;;;;;0.75;0.75;;;0.70;99.90;;;;;;4949372;28;20164;-83
2022/12/15 15:13:18;;;;;;;0.77;0.77;;;0.70;99.90;;;;;;4945438;28;20509;-83
2022/12/15 15:15:55;;;;;;;0.80;0.80;;;0.60;99.90;;;;;;4947597;28;20424;-83
2022/12/15 15:18:30;;;;;;;0.80;0.80;;;0.50;99.90;;;;;;4948520;28;20057;-82
2022/12/15 15:21:03;;;;;;;0.80;0.80;;;0.50;99.90;;;;;;4955998;28;20590;-82
2022/12/15 15:23:29;;;;;;;0.80;0.80;;;0.40;99.90;;;;;;4948979;28;20270;-81
2022/12/15 15:26:04;;;;;;;0.80;0.80;;;0.40;99.90;;;;;;4945755;28;20048;-82
2022/12/15 15:28:42;;;;;;;0.80;0.80;;;0.30;99.90;;;;;;4947339;28;20094;-82
2022/12/15 15:31:23;;;;;;;0.80;0.80;;;0.20;99.90;;;;;;4950792;28;20589;-83
2022/12/15 15:33:50;;;;;;;0.80;0.80;;;0.20;99.90;;;;;;4950859;28;20084;-82
2022/12/15 15:36:16;;;;;;;0.80;0.80;;;0.20;99.90;;;;;;4944721;28;20085;-84
2022/12/15 15:38:45;;;;;;;0.80;0.80;;;0.10;99.90;;;;;;4951718;28;20284;-83